Time;durP1;ratioP1;P1;durP2;ratioP2;P2;SDS_P1;SDS_P2;PMS_P1;PMS_P2;Temp;Humidity;BMP_temperature;BMP_pressure;BME280_temperature;BME280_humidity;BME280_pressure;Samples;Min_cycle;Max_cycle;Signal;HPM_P1;HPM_P2
2023/01/28 00:01:05;;;;;;;2.47;2.27;;;5.90;90.10;;;;;;939999;152;27296;-82
2023/01/28 00:03:32;;;;;;;2.57;2.37;;;5.90;90.00;;;;;;939980;151;27286;-82
2023/01/28 00:06:01;;;;;;;2.50;2.30;;;5.80;89.70;;;;;;940647;151;27871;-82
2023/01/28 00:08:27;;;;;;;2.63;2.33;;;5.80;89.70;;;;;;939591;152;27382;-82
2023/01/28 00:10:54;;;;;;;2.50;2.30;;;5.70;89.50;;;;;;939367;149;27250;-82
2023/01/28 00:13:21;;;;;;;3.53;3.23;;;5.60;89.70;;;;;;939813;152;27752;-82
2023/01/28 00:15:47;;;;;;;3.67;3.13;;;5.50;89.80;;;;;;940067;152;27343;-82
2023/01/28 00:18:14;;;;;;;3.53;3.23;;;5.50;90.00;;;;;;939105;149;27333;-82
2023/01/28 00:20:40;;;;;;;3.70;2.77;;;5.40;90.00;;;;;;940682;149;27801;-82
2023/01/28 00:23:07;;;;;;;3.30;3.00;;;5.30;90.20;;;;;;937918;152;27317;-82
2023/01/28 00:25:33;;;;;;;3.40;3.10;;;5.30;90.30;;;;;;939823;149;27331;-82
2023/01/28 00:28:00;;;;;;;3.47;3.00;;;5.20;90.60;;;;;;939806;152;27405;-82
2023/01/28 00:30:27;;;;;;;3.03;2.73;;;5.20;90.90;;;;;;939219;149;27408;-82
2023/01/28 00:32:54;;;;;;;5.40;2.90;;;5.20;91.20;;;;;;948082;150;27826;-82
2023/01/28 00:35:20;;;;;;;2.40;2.20;;;5.20;91.30;;;;;;953732;148;27388;-82
2023/01/28 00:37:46;;;;;;;2.60;2.40;;;5.20;91.30;;;;;;952553;150;27841;-82
2023/01/28 00:40:13;;;;;;;2.60;2.13;;;5.20;91.40;;;;;;953296;148;27788;-82
2023/01/28 00:42:40;;;;;;;2.40;2.20;;;5.30;91.50;;;;;;952866;148;27306;-82
2023/01/28 00:45:06;;;;;;;2.10;2.00;;;5.30;91.50;;;;;;952750;148;27278;-82
2023/01/28 00:47:33;;;;;;;2.17;2.03;;;5.30;91.50;;;;;;952456;150;27279;-82
2023/01/28 00:49:59;;;;;;;1.97;1.87;;;5.30;91.60;;;;;;952942;148;27327;-82
2023/01/28 00:52:26;;;;;;;1.90;1.80;;;5.30;91.70;;;;;;952307;150;27347;-82
2023/01/28 00:54:53;;;;;;;2.47;2.27;;;5.30;91.60;;;;;;952402;148;27376;-82
2023/01/28 00:57:19;;;;;;;2.07;1.97;;;5.40;91.70;;;;;;952921;148;27459;-82
2023/01/28 00:59:46;;;;;;;2.00;1.80;;;5.40;91.70;;;;;;953486;148;27342;-82
2023/01/28 01:02:12;;;;;;;2.17;2.00;;;5.50;91.70;;;;;;952436;150;27328;-82
2023/01/28 01:04:39;;;;;;;2.20;2.00;;;5.50;91.80;;;;;;951544;150;27340;-82
2023/01/28 01:07:05;;;;;;;2.07;1.97;;;5.60;91.80;;;;;;952674;148;27310;-82
2023/01/28 01:09:32;;;;;;;2.13;2.03;;;5.60;91.70;;;;;;951210;148;27361;-82
2023/01/28 01:11:59;;;;;;;1.93;1.83;;;5.60;91.70;;;;;;950929;148;27353;-82
2023/01/28 01:14:25;;;;;;;2.03;1.93;;;5.70;91.70;;;;;;951092;148;27405;-82
2023/01/28 01:16:52;;;;;;;2.00;1.90;;;5.70;91.70;;;;;;950649;150;27338;-82
2023/01/28 01:19:18;;;;;;;2.20;2.00;;;5.70;91.60;;;;;;952660;148;27400;-81
2023/01/28 01:21:49;;;;;;;2.20;2.00;;;5.80;91.60;;;;;;952646;148;27473;-82
2023/01/28 01:24:11;;;;;;;1.97;1.87;;;5.80;91.50;;;;;;950282;148;27478;-82
2023/01/28 01:26:38;;;;;;;2.50;2.30;;;5.80;91.40;;;;;;951271;148;27305;-82
2023/01/28 01:29:05;;;;;;;2.50;2.30;;;5.80;91.40;;;;;;953555;148;27372;-82
2023/01/28 01:31:31;;;;;;;2.73;1.97;;;5.80;91.40;;;;;;953581;148;27319;-82
2023/01/28 01:33:58;;;;;;;2.10;2.00;;;5.90;91.40;;;;;;948207;148;27392;-82
2023/01/28 01:36:24;;;;;;;2.20;2.00;;;5.90;91.30;;;;;;947033;151;27440;-82
2023/01/28 01:38:54;;;;;;;2.70;2.50;;;5.90;91.30;;;;;;947339;150;27835;-82
2023/01/28 01:41:20;;;;;;;2.33;2.10;;;5.90;91.20;;;;;;947743;151;27336;-82
2023/01/28 01:43:47;;;;;;;2.17;2.07;;;5.90;91.20;;;;;;945937;150;27416;-82
2023/01/28 01:46:14;;;;;;;2.30;2.10;;;5.90;91.10;;;;;;946831;150;27790;-82
2023/01/28 01:48:40;;;;;;;2.33;2.13;;;5.90;91.10;;;;;;947409;148;27253;-82
2023/01/28 01:51:07;;;;;;;1.90;1.80;;;5.90;91.00;;;;;;947980;146;27295;-82
2023/01/28 01:53:33;;;;;;;3.23;2.40;;;5.90;91.00;;;;;;946609;151;27449;-82
2023/01/28 01:56:00;;;;;;;2.40;2.07;;;5.90;90.90;;;;;;946361;150;27444;-82
2023/01/28 01:58:26;;;;;;;2.63;2.43;;;5.90;90.90;;;;;;947491;150;27318;-82
2023/01/28 02:00:53;;;;;;;2.30;2.10;;;5.90;90.90;;;;;;947897;151;27299;-82
2023/01/28 02:03:20;;;;;;;2.17;2.07;;;5.90;90.90;;;;;;947217;150;27343;-81
2023/01/28 02:05:46;;;;;;;2.53;2.33;;;5.90;90.90;;;;;;947002;150;27346;-82
2023/01/28 02:08:22;;;;;;;2.83;2.53;;;5.90;90.90;;;;;;947162;151;27347;-82
2023/01/28 02:10:54;;;;;;;2.60;2.40;;;5.90;90.90;;;;;;947412;151;27442;-82
2023/01/28 02:13:21;;;;;;;2.37;2.07;;;5.80;90.90;;;;;;947219;150;27322;-81
2023/01/28 02:15:47;;;;;;;2.83;2.50;;;5.80;90.90;;;;;;947336;150;27335;-81
2023/01/28 02:18:14;;;;;;;2.10;2.00;;;5.80;90.90;;;;;;948057;151;28738;-81
2023/01/28 02:20:52;;;;;;;4.27;2.37;;;5.80;91.10;;;;;;948200;150;27353;-81
2023/01/28 02:23:31;;;;;;;2.20;2.10;;;5.80;90.90;;;;;;947298;151;27465;-81
2023/01/28 02:26:22;;;;;;;2.37;2.17;;;5.80;90.90;;;;;;947197;151;27331;-81
2023/01/28 02:28:49;;;;;;;2.53;2.33;;;5.70;90.80;;;;;;947457;151;27339;-81
2023/01/28 02:31:21;;;;;;;2.17;2.07;;;5.70;90.80;;;;;;946819;150;27327;-81
2023/01/28 02:34:10;;;;;;;2.23;1.90;;;5.70;90.80;;;;;;943528;150;27836;-81
2023/01/28 02:36:45;;;;;;;2.10;2.00;;;5.70;90.80;;;;;;939990;151;27364;-81
2023/01/28 02:39:18;;;;;;;3.07;2.27;;;5.70;90.80;;;;;;940000;149;27396;-81
2023/01/28 02:41:56;;;;;;;2.00;1.90;;;5.70;90.80;;;;;;939820;151;27266;-81
2023/01/28 02:44:23;;;;;;;2.27;2.10;;;5.70;90.90;;;;;;934888;152;27352;-81
2023/01/28 02:49:40;;;;;;;2.03;1.90;;;5.60;90.90;;;;;;940413;149;27336;-81
2023/01/28 02:55:15;;;;;;;2.10;1.90;;;5.60;90.90;;;;;;939772;152;27367;-81
2023/01/28 02:58:00;;;;;;;2.30;2.00;;;5.60;90.90;;;;;;939305;151;27428;-81
2023/01/28 03:00:26;;;;;;;2.20;2.00;;;5.60;91.00;;;;;;938689;151;28040;-81
2023/01/28 03:02:56;;;;;;;2.20;2.00;;;5.60;91.00;;;;;;940265;151;27285;-81
2023/01/28 03:05:22;;;;;;;2.30;2.10;;;5.60;91.00;;;;;;939742;151;27421;-81
2023/01/28 03:07:49;;;;;;;2.30;2.10;;;5.60;91.00;;;;;;940982;150;27324;-81
2023/01/28 03:10:15;;;;;;;2.63;2.30;;;5.60;91.00;;;;;;940297;150;27334;-81
2023/01/28 03:38:17;;;;;;;2.27;2.17;;;5.50;90.90;;;;;;953183;150;27326;-79
2023/01/28 03:40:33;;;;;;;2.57;2.13;;;5.60;91.00;;;;;;951172;149;27337;-80
2023/01/28 03:42:59;;;;;;;2.10;2.00;;;5.50;91.00;;;;;;952835;148;27330;-80
2023/01/28 03:45:26;;;;;;;2.63;2.43;;;5.50;91.00;;;;;;952403;149;27421;-80
2023/01/28 03:47:52;;;;;;;2.33;2.20;;;5.50;91.10;;;;;;952703;150;27366;-79
2023/01/28 03:50:19;;;;;;;2.30;2.20;;;5.50;91.10;;;;;;953057;148;27317;-80
2023/01/28 03:52:45;;;;;;;2.20;2.00;;;5.50;91.20;;;;;;952477;148;27403;-80
2023/01/28 03:55:12;;;;;;;2.57;2.37;;;5.50;91.10;;;;;;952424;148;27342;-79
2023/01/28 03:57:39;;;;;;;2.83;2.40;;;5.50;91.10;;;;;;952420;150;27356;-81
2023/01/28 04:00:06;;;;;;;2.50;2.30;;;5.50;91.10;;;;;;953274;150;27897;-81
2023/01/28 04:02:34;;;;;;;2.90;2.30;;;5.50;91.10;;;;;;952867;149;27298;-81
2023/01/28 04:04:59;;;;;;;2.57;2.13;;;5.50;91.20;;;;;;952824;148;27344;-81
2023/01/28 04:07:25;;;;;;;2.27;2.17;;;5.50;91.20;;;;;;952445;148;27772;-81
2023/01/28 04:09:52;;;;;;;2.60;2.40;;;5.50;91.20;;;;;;952785;150;27275;-81
2023/01/28 04:12:18;;;;;;;3.30;2.60;;;5.50;91.20;;;;;;953354;148;27398;-81
2023/01/28 04:14:45;;;;;;;2.63;2.43;;;5.40;91.20;;;;;;952648;148;27307;-81
2023/01/28 04:17:11;;;;;;;3.00;2.70;;;5.40;91.20;;;;;;952788;148;27349;-81
2023/01/28 04:19:39;;;;;;;2.40;2.20;;;5.40;91.20;;;;;;952688;150;28376;-81
2023/01/28 04:22:04;;;;;;;2.83;2.40;;;5.40;91.20;;;;;;952621;150;27283;-81
2023/01/28 04:24:31;;;;;;;2.20;2.10;;;5.40;91.20;;;;;;952087;148;28731;-81
2023/01/28 04:26:58;;;;;;;2.80;2.60;;;5.40;91.10;;;;;;952690;148;27314;-81
2023/01/28 04:29:24;;;;;;;2.23;2.13;;;5.40;91.10;;;;;;952117;148;27341;-81
2023/01/28 04:31:51;;;;;;;2.30;2.20;;;5.40;91.10;;;;;;952466;148;27321;-82
2023/01/28 04:34:19;;;;;;;2.10;2.00;;;5.30;91.10;;;;;;951364;150;27252;-81
2023/01/28 04:36:44;;;;;;;2.60;2.40;;;5.30;91.10;;;;;;939840;151;27403;-81
2023/01/28 04:39:11;;;;;;;2.50;2.30;;;5.30;91.30;;;;;;940595;152;27893;-81
2023/01/28 04:41:37;;;;;;;2.37;2.27;;;5.30;91.20;;;;;;939664;152;27330;-81
2023/01/28 04:44:04;;;;;;;3.17;2.70;;;5.20;91.10;;;;;;938944;152;27323;-81
2023/01/28 04:46:31;;;;;;;2.60;2.40;;;5.20;91.10;;;;;;940363;149;27386;-81
2023/01/28 04:48:57;;;;;;;2.30;2.20;;;5.20;91.10;;;;;;940759;149;28146;-81
2023/01/28 04:51:23;;;;;;;2.53;2.33;;;5.20;91.20;;;;;;939744;152;27826;-81
2023/01/28 04:53:50;;;;;;;2.37;2.17;;;5.10;91.10;;;;;;939610;150;27642;-81
2023/01/28 04:56:17;;;;;;;2.33;2.23;;;5.10;91.10;;;;;;939193;152;27698;-82
2023/01/28 04:58:43;;;;;;;2.57;2.20;;;5.10;91.20;;;;;;939892;152;27456;-81
2023/01/28 05:01:10;;;;;;;2.40;2.07;;;5.00;91.20;;;;;;939910;151;27356;-82
2023/01/28 05:03:36;;;;;;;2.70;2.50;;;5.00;91.20;;;;;;940867;151;27868;-81
2023/01/28 05:06:03;;;;;;;2.67;2.47;;;5.00;91.30;;;;;;940556;152;27421;-81
2023/01/28 05:08:30;;;;;;;3.87;2.73;;;5.00;91.30;;;;;;940426;150;28004;-81
2023/01/28 05:10:56;;;;;;;2.47;2.27;;;5.00;91.40;;;;;;939955;152;27242;-81
2023/01/28 05:13:23;;;;;;;3.00;2.67;;;4.90;91.50;;;;;;940056;151;27380;-81
2023/01/28 05:15:52;;;;;;;2.90;2.70;;;4.90;91.60;;;;;;939970;152;27309;-81
2023/01/28 05:18:19;;;;;;;2.90;2.70;;;5.00;91.70;;;;;;939340;149;27893;-81
2023/01/28 05:20:45;;;;;;;3.00;2.80;;;4.90;91.60;;;;;;940265;152;27289;-81
2023/01/28 05:23:12;;;;;;;2.60;2.40;;;5.00;91.70;;;;;;939664;152;27806;-81
2023/01/28 05:25:38;;;;;;;2.77;2.47;;;5.00;91.60;;;;;;940543;152;27404;-81
2023/01/28 05:28:05;;;;;;;2.83;2.50;;;5.00;91.50;;;;;;939058;152;27447;-81
2023/01/28 05:30:31;;;;;;;2.53;2.33;;;5.00;91.50;;;;;;939186;151;27327;-81
2023/01/28 05:32:58;;;;;;;2.50;2.30;;;5.00;91.50;;;;;;940762;152;27266;-81
2023/01/28 05:35:25;;;;;;;3.73;2.50;;;5.00;91.50;;;;;;939891;151;27376;-81
2023/01/28 05:37:51;;;;;;;3.37;2.80;;;5.00;91.60;;;;;;940067;152;27342;-81
2023/01/28 05:40:18;;;;;;;4.47;3.17;;;5.00;91.70;;;;;;940490;152;27296;-81
2023/01/28 05:42:44;;;;;;;5.03;3.90;;;5.00;91.70;;;;;;940642;150;27250;-81
2023/01/28 05:45:11;;;;;;;8.80;4.07;;;5.10;91.80;;;;;;940152;152;27432;-81
2023/01/28 05:47:38;;;;;;;9.43;5.53;;;5.10;91.90;;;;;;939991;151;27361;-81
2023/01/28 05:50:04;;;;;;;8.50;5.13;;;5.10;91.90;;;;;;940419;150;27308;-81
2023/01/28 05:52:31;;;;;;;3.70;3.30;;;5.10;91.90;;;;;;938795;149;27285;-81
2023/01/28 05:54:57;;;;;;;3.50;2.83;;;5.20;91.90;;;;;;940383;152;27281;-81
2023/01/28 05:57:24;;;;;;;2.80;2.50;;;5.20;91.80;;;;;;939338;152;27346;-81
2023/01/28 05:59:50;;;;;;;2.70;2.50;;;5.20;91.80;;;;;;939971;152;28759;-82
2023/01/28 06:02:17;;;;;;;5.40;2.90;;;5.20;91.70;;;;;;939042;152;27249;-81
2023/01/28 06:04:44;;;;;;;3.10;2.90;;;5.30;91.70;;;;;;940249;151;27397;-81
2023/01/28 06:07:12;;;;;;;2.60;2.40;;;5.30;91.70;;;;;;940149;150;27320;-81
2023/01/28 06:09:37;;;;;;;3.77;2.40;;;5.30;92.00;;;;;;940660;150;27340;-81
2023/01/28 06:12:03;;;;;;;3.93;2.53;;;5.30;91.70;;;;;;940631;150;27334;-82
2023/01/28 06:14:30;;;;;;;2.63;2.43;;;5.30;91.60;;;;;;939884;149;27393;-82
2023/01/28 06:16:57;;;;;;;3.50;2.50;;;5.30;91.60;;;;;;940210;150;27863;-81
2023/01/28 06:19:23;;;;;;;3.07;2.60;;;5.30;91.60;;;;;;939694;150;27332;-81
2023/01/28 06:21:50;;;;;;;2.70;2.50;;;5.40;91.60;;;;;;940316;152;27352;-81
2023/01/28 06:24:16;;;;;;;2.67;2.47;;;5.40;91.50;;;;;;939766;149;27463;-81
2023/01/28 06:26:43;;;;;;;3.47;2.60;;;5.40;91.50;;;;;;939820;152;27410;-81
2023/01/28 06:29:10;;;;;;;2.60;2.13;;;5.40;91.80;;;;;;939878;152;27362;-81
2023/01/28 06:31:36;;;;;;;3.43;2.53;;;5.40;91.40;;;;;;940539;152;27420;-81
2023/01/28 06:34:03;;;;;;;2.83;2.27;;;5.40;91.40;;;;;;940386;150;27318;-81
2023/01/28 06:36:29;;;;;;;3.20;2.50;;;5.40;91.30;;;;;;942987;145;27324;-81
2023/01/28 06:38:56;;;;;;;2.30;2.00;;;5.40;91.30;;;;;;942774;151;27305;-81
2023/01/28 06:41:22;;;;;;;2.40;2.17;;;5.40;91.30;;;;;;942755;149;27365;-81
2023/01/28 06:43:49;;;;;;;3.13;2.60;;;5.40;91.30;;;;;;942781;149;27368;-81
2023/01/28 06:46:16;;;;;;;2.53;2.30;;;5.40;91.30;;;;;;940466;149;27297;-81
2023/01/28 06:48:42;;;;;;;2.87;2.57;;;5.50;91.50;;;;;;939912;152;27300;-81
2023/01/28 06:51:09;;;;;;;2.67;2.47;;;5.50;91.30;;;;;;940447;150;27312;-81
2023/01/28 06:53:35;;;;;;;2.43;2.23;;;5.40;91.20;;;;;;939168;150;27450;-81
2023/01/28 06:56:02;;;;;;;3.00;2.70;;;5.50;91.30;;;;;;940458;151;28343;-81
2023/01/28 06:58:29;;;;;;;2.70;2.50;;;5.50;91.20;;;;;;939494;150;27941;-81
2023/01/28 07:00:55;;;;;;;2.70;2.50;;;5.50;91.20;;;;;;940402;149;27300;-81
2023/01/28 07:03:22;;;;;;;2.53;2.30;;;5.50;91.20;;;;;;940007;149;27382;-81
2023/01/28 07:05:48;;;;;;;3.10;2.40;;;5.50;91.20;;;;;;939782;150;27336;-82
2023/01/28 07:08:15;;;;;;;3.20;2.73;;;5.50;91.10;;;;;;940456;152;27389;-81
2023/01/28 07:10:41;;;;;;;2.57;2.37;;;5.50;91.10;;;;;;939882;152;27288;-81
2023/01/28 07:13:08;;;;;;;2.70;2.50;;;5.50;91.10;;;;;;940357;152;27289;-81
2023/01/28 07:15:35;;;;;;;5.00;2.90;;;5.50;91.00;;;;;;939824;151;27813;-82
2023/01/28 07:18:01;;;;;;;3.00;2.50;;;5.50;90.90;;;;;;939758;152;27269;-81
2023/01/28 07:20:28;;;;;;;4.53;3.13;;;5.50;90.90;;;;;;939836;152;27313;-81
2023/01/28 07:22:54;;;;;;;7.20;4.50;;;5.50;91.00;;;;;;940414;150;27290;-81
2023/01/28 07:25:21;;;;;;;4.80;3.50;;;5.50;91.00;;;;;;938779;151;27477;-81
2023/01/28 07:27:48;;;;;;;4.77;3.30;;;5.60;91.00;;;;;;940118;151;27850;-81
2023/01/28 07:30:14;;;;;;;2.80;2.60;;;5.60;91.10;;;;;;939851;152;27627;-81
2023/01/28 07:32:41;;;;;;;2.63;2.40;;;5.60;91.10;;;;;;938779;151;27347;-81
2023/01/28 07:35:07;;;;;;;2.87;2.30;;;5.60;91.20;;;;;;939682;152;27414;-81
2023/01/28 07:37:34;;;;;;;2.93;2.73;;;5.60;91.20;;;;;;944945;150;27398;-81
2023/01/28 07:40:00;;;;;;;3.03;2.30;;;5.70;91.20;;;;;;948810;150;27359;-81
2023/01/28 07:42:27;;;;;;;2.67;2.47;;;5.70;91.20;;;;;;948607;150;27284;-80
2023/01/28 07:44:54;;;;;;;5.07;2.53;;;5.80;91.10;;;;;;948275;151;27689;-81
2023/01/28 07:47:20;;;;;;;2.70;2.43;;;5.80;91.00;;;;;;948478;150;27427;-81
2023/01/28 07:49:47;;;;;;;2.50;2.30;;;5.80;90.90;;;;;;948109;150;27256;-81
2023/01/28 07:52:14;;;;;;;3.00;2.60;;;5.90;90.80;;;;;;948488;150;27292;-81
2023/01/28 07:54:40;;;;;;;2.43;2.23;;;5.90;90.70;;;;;;946688;150;27824;-81
2023/01/28 07:57:08;;;;;;;2.60;2.40;;;6.00;90.60;;;;;;947606;150;27334;-80
2023/01/28 07:59:33;;;;;;;2.70;2.50;;;6.00;90.50;;;;;;947249;150;27448;-80
2023/01/28 08:02:00;;;;;;;4.13;2.70;;;6.00;90.30;;;;;;948450;151;27298;-80
2023/01/28 08:04:26;;;;;;;3.20;2.60;;;6.00;90.20;;;;;;947676;148;27396;-81
2023/01/28 08:06:53;;;;;;;3.23;2.90;;;6.00;90.10;;;;;;947567;150;27274;-80
2023/01/28 08:09:20;;;;;;;3.07;2.77;;;6.00;90.00;;;;;;948124;150;27335;-81
2023/01/28 08:11:46;;;;;;;2.60;2.40;;;6.00;90.00;;;;;;947967;151;28473;-80
2023/01/28 08:14:13;;;;;;;2.70;2.50;;;6.00;89.90;;;;;;947892;151;27457;-80
2023/01/28 08:16:39;;;;;;;3.57;2.90;;;6.00;89.90;;;;;;947984;150;27248;-80
2023/01/28 08:19:06;;;;;;;2.63;2.43;;;6.00;89.70;;;;;;948149;150;27291;-81
2023/01/28 08:21:32;;;;;;;2.87;2.67;;;6.00;89.60;;;;;;948158;150;27424;-80
2023/01/28 08:23:59;;;;;;;2.73;2.47;;;6.00;89.50;;;;;;947362;151;27863;-81
2023/01/28 08:26:26;;;;;;;2.57;2.20;;;6.10;89.40;;;;;;946106;150;27276;-81
2023/01/28 08:28:52;;;;;;;2.80;2.60;;;6.00;89.10;;;;;;948174;151;27313;-80
2023/01/28 08:31:19;;;;;;;3.97;2.67;;;6.10;89.10;;;;;;945454;150;27431;-81
2023/01/28 08:33:45;;;;;;;2.60;2.40;;;6.10;89.10;;;;;;945723;151;27346;-81
2023/01/28 08:36:12;;;;;;;2.50;2.27;;;6.10;89.10;;;;;;945522;151;27379;-80
2023/01/28 08:38:39;;;;;;;3.93;2.87;;;6.10;88.90;;;;;;942251;151;27328;-81
2023/01/28 08:41:05;;;;;;;3.73;2.53;;;6.10;88.90;;;;;;939612;152;27312;-80
2023/01/28 08:43:32;;;;;;;3.20;3.00;;;6.10;88.70;;;;;;939189;152;27343;-80
2023/01/28 08:45:58;;;;;;;3.60;2.43;;;6.10;88.30;;;;;;938677;152;28407;-81
2023/01/28 08:48:25;;;;;;;2.90;2.70;;;6.20;88.10;;;;;;939756;152;27309;-81
2023/01/28 08:50:51;;;;;;;2.90;2.70;;;6.20;88.60;;;;;;939730;152;27370;-80
2023/01/28 08:53:18;;;;;;;2.33;2.23;;;6.20;87.70;;;;;;939488;151;27414;-81
2023/01/28 08:55:45;;;;;;;3.37;2.43;;;6.20;87.40;;;;;;939980;150;27323;-81
2023/01/28 08:58:11;;;;;;;2.23;2.13;;;6.20;87.10;;;;;;938700;151;27331;-81
2023/01/28 09:00:38;;;;;;;3.80;3.20;;;6.30;87.00;;;;;;937414;151;27321;-81
2023/01/28 09:03:04;;;;;;;3.20;2.90;;;6.30;86.40;;;;;;938785;149;27233;-81
2023/01/28 09:05:32;;;;;;;2.93;2.73;;;6.30;86.20;;;;;;938869;151;28150;-80
2023/01/28 09:07:58;;;;;;;2.90;2.70;;;6.30;85.90;;;;;;939076;149;27340;-81
2023/01/28 09:10:24;;;;;;;2.47;2.13;;;6.30;85.80;;;;;;937909;149;27311;-81
2023/01/28 09:12:51;;;;;;;2.50;2.30;;;6.30;84.80;;;;;;938613;151;27268;-81
2023/01/28 09:15:17;;;;;;;3.53;2.23;;;6.30;84.80;;;;;;939326;149;27416;-81
2023/01/28 09:17:44;;;;;;;2.70;2.37;;;6.30;84.70;;;;;;938578;151;27360;-81
2023/01/28 09:20:11;;;;;;;2.03;1.93;;;6.40;84.60;;;;;;939555;150;27323;-81
2023/01/28 09:22:37;;;;;;;2.20;2.10;;;6.40;84.50;;;;;;938984;150;27872;-80
2023/01/28 09:25:04;;;;;;;2.90;2.60;;;6.40;83.70;;;;;;938717;150;27328;-80
2023/01/28 09:27:30;;;;;;;2.90;2.70;;;6.40;83.90;;;;;;939461;150;27343;-81
2023/01/28 09:29:57;;;;;;;3.53;2.70;;;6.40;84.00;;;;;;938736;151;27332;-80
2023/01/28 09:32:23;;;;;;;2.73;2.53;;;6.40;83.80;;;;;;938691;151;27351;-81
2023/01/28 09:34:50;;;;;;;2.83;2.50;;;6.40;83.70;;;;;;939111;150;27352;-81
2023/01/28 09:37:17;;;;;;;3.50;2.80;;;6.40;83.00;;;;;;938833;151;27336;-81
2023/01/28 09:39:43;;;;;;;4.17;2.60;;;6.40;82.90;;;;;;939315;149;27420;-81
2023/01/28 09:42:28;;;;;;;2.60;2.40;;;6.40;82.80;;;;;;938522;151;27324;-81
2023/01/28 09:45:01;;;;;;;1.87;1.77;;;6.40;82.90;;;;;;939470;150;27261;-81
2023/01/28 09:47:27;;;;;;;2.50;2.30;;;6.40;82.40;;;;;;937631;151;27293;-81
2023/01/28 09:49:55;;;;;;;2.00;1.90;;;6.40;82.30;;;;;;938482;149;27350;-81
2023/01/28 09:52:21;;;;;;;4.83;2.80;;;6.40;82.30;;;;;;939028;149;27348;-81
2023/01/28 09:54:50;;;;;;;6.60;2.90;;;6.40;82.10;;;;;;939481;150;27408;-81
2023/01/28 09:57:19;;;;;;;3.87;2.63;;;6.40;82.00;;;;;;938532;151;27356;-81
2023/01/28 09:59:46;;;;;;;3.43;2.53;;;6.40;82.20;;;;;;938821;150;27879;-81
2023/01/28 10:02:37;;;;;;;4.03;2.70;;;6.40;82.30;;;;;;938498;150;27308;-81
2023/01/28 10:05:28;;;;;;;2.20;2.00;;;6.40;82.50;;;;;;939499;149;27857;-81
2023/01/28 10:08:06;;;;;;;1.97;1.80;;;6.50;82.50;;;;;;938728;151;27324;-82
2023/01/28 10:10:33;;;;;;;2.00;1.90;;;6.50;82.60;;;;;;939388;151;27300;-82
2023/01/28 10:13:08;;;;;;;2.73;2.40;;;6.50;81.50;;;;;;930052;152;27421;-82
2023/01/28 10:15:56;;;;;;;2.70;2.50;;;6.60;82.30;;;;;;938279;151;27324;-82
2023/01/28 10:18:34;;;;;;;3.57;2.30;;;6.60;82.50;;;;;;938685;152;28322;-82
2023/01/28 10:21:07;;;;;;;2.07;1.97;;;6.60;81.90;;;;;;939778;151;27288;-82
2023/01/28 10:23:39;;;;;;;2.63;2.43;;;6.60;81.70;;;;;;939517;151;27351;-81
2023/01/28 10:26:06;;;;;;;2.97;2.67;;;6.70;81.20;;;;;;938569;151;27348;-81
2023/01/28 10:28:32;;;;;;;9.73;2.60;;;6.70;81.20;;;;;;940139;150;27693;-81
2023/01/28 10:30:59;;;;;;;3.17;2.00;;;6.70;81.40;;;;;;939712;149;27323;-81
2023/01/28 10:33:38;;;;;;;2.77;2.30;;;6.70;81.40;;;;;;940164;152;27253;-81
2023/01/28 10:36:04;;;;;;;2.30;2.10;;;6.70;81.30;;;;;;928027;150;27475;-81
2023/01/28 10:38:31;;;;;;;2.80;2.10;;;6.70;81.00;;;;;;944055;146;28528;-81
2023/01/28 10:40:57;;;;;;;2.30;2.10;;;6.70;80.70;;;;;;960254;146;27343;-81
2023/01/28 10:43:24;;;;;;;1.97;1.67;;;6.60;80.40;;;;;;959239;146;27366;-81
2023/01/28 10:46:05;;;;;;;2.13;2.03;;;6.60;80.30;;;;;;950736;148;27464;-81
2023/01/28 10:48:33;;;;;;;3.23;2.40;;;6.60;80.20;;;;;;943690;149;27465;-81
2023/01/28 10:51:00;;;;;;;2.80;2.20;;;6.60;80.40;;;;;;943701;149;27847;-81
2023/01/28 10:53:43;;;;;;;2.40;2.20;;;6.60;80.50;;;;;;944479;149;27421;-81
2023/01/28 10:56:10;;;;;;;2.70;2.03;;;6.60;80.30;;;;;;949583;150;27347;-81
2023/01/28 10:58:36;;;;;;;2.30;2.10;;;6.60;80.30;;;;;;950951;149;27342;-80
2023/01/28 11:01:03;;;;;;;3.20;2.20;;;6.50;80.20;;;;;;948573;149;27270;-81
2023/01/28 11:03:30;;;;;;;2.40;1.80;;;6.60;80.10;;;;;;947342;151;27412;-80
2023/01/28 11:05:56;;;;;;;2.30;2.10;;;6.50;80.10;;;;;;947295;150;27299;-81
2023/01/28 11:08:23;;;;;;;2.37;2.20;;;6.50;79.90;;;;;;947493;148;27349;-81
2023/01/28 11:10:49;;;;;;;3.50;2.10;;;6.50;79.80;;;;;;946441;150;27967;-81
2023/01/28 11:13:22;;;;;;;2.40;2.20;;;6.50;79.90;;;;;;947580;148;27365;-81
2023/01/28 11:15:49;;;;;;;4.40;2.23;;;6.50;79.70;;;;;;947099;150;27903;-81
2023/01/28 11:18:24;;;;;;;2.00;1.80;;;6.40;79.60;;;;;;946963;150;27320;-81
2023/01/28 11:20:55;;;;;;;2.40;2.20;;;6.50;79.70;;;;;;947463;150;27327;-81
2023/01/28 11:23:23;;;;;;;2.93;2.53;;;6.40;79.60;;;;;;947143;150;27315;-81
2023/01/28 11:25:50;;;;;;;3.33;2.43;;;6.40;79.60;;;;;;946624;150;27752;-81
2023/01/28 11:28:16;;;;;;;2.07;1.87;;;6.50;79.80;;;;;;945886;150;27436;-81
2023/01/28 11:30:43;;;;;;;2.57;2.37;;;6.40;79.60;;;;;;946109;150;27350;-81
2023/01/28 11:33:15;;;;;;;2.50;2.30;;;6.40;79.60;;;;;;947327;151;27283;-81
2023/01/28 11:35:42;;;;;;;2.60;2.40;;;6.40;79.50;;;;;;946866;150;27252;-81
2023/01/28 11:38:17;;;;;;;2.50;2.30;;;6.40;79.50;;;;;;946137;150;27416;-81
2023/01/28 11:40:50;;;;;;;3.20;2.53;;;6.40;79.40;;;;;;941755;150;27468;-81
2023/01/28 11:43:16;;;;;;;2.43;2.23;;;6.40;79.40;;;;;;937716;149;27335;-81
2023/01/28 11:46:01;;;;;;;7.63;2.10;;;6.40;79.30;;;;;;938612;148;27321;-81
2023/01/28 11:48:49;;;;;;;2.10;2.00;;;6.40;78.80;;;;;;939858;150;27289;-81
2023/01/28 11:51:31;;;;;;;3.13;2.27;;;6.30;78.80;;;;;;925268;152;27354;-81
2023/01/28 11:54:00;;;;;;;4.40;2.40;;;6.30;78.70;;;;;;943343;148;27421;-81
2023/01/28 11:56:45;;;;;;;2.30;2.10;;;6.30;77.60;;;;;;937855;150;27427;-81
2023/01/28 11:59:18;;;;;;;3.47;2.40;;;6.30;78.50;;;;;;928843;150;27838;-81
2023/01/28 12:01:52;;;;;;;2.70;2.50;;;6.30;78.50;;;;;;932002;150;27380;-81
2023/01/28 12:04:25;;;;;;;3.00;2.50;;;6.30;78.40;;;;;;929790;150;27378;-81
2023/01/28 12:07:22;;;;;;;3.60;2.50;;;6.20;78.40;;;;;;925956;150;27397;-81
2023/01/28 12:09:49;;;;;;;2.80;2.60;;;6.30;78.40;;;;;;937133;150;27460;-81
2023/01/28 12:12:34;;;;;;;2.47;2.30;;;6.20;78.30;;;;;;930021;150;27366;-81
2023/01/28 12:15:19;;;;;;;3.70;2.57;;;6.20;78.30;;;;;;942489;148;27301;-81
2023/01/28 12:17:57;;;;;;;2.60;2.40;;;6.20;78.40;;;;;;941328;149;27369;-81
2023/01/28 12:20:26;;;;;;;3.13;2.40;;;6.20;78.40;;;;;;940557;149;27873;-81
2023/01/28 12:23:04;;;;;;;4.30;2.00;;;6.20;78.50;;;;;;941653;149;27475;-81
2023/01/28 12:25:45;;;;;;;2.47;2.27;;;6.20;78.20;;;;;;924683;149;27416;-81
2023/01/28 12:28:22;;;;;;;2.33;2.10;;;6.20;78.20;;;;;;941033;149;27340;-81
2023/01/28 12:31:08;;;;;;;2.40;2.20;;;6.20;78.20;;;;;;938292;149;27310;-81
2023/01/28 12:33:50;;;;;;;2.50;2.30;;;6.20;78.20;;;;;;941144;149;27465;-81
2023/01/28 12:36:37;;;;;;;3.53;2.43;;;6.20;78.10;;;;;;941670;149;27347;-81
2023/01/28 12:39:22;;;;;;;2.20;2.00;;;6.20;77.90;;;;;;941433;149;27324;-81
2023/01/28 12:42:10;;;;;;;2.50;2.30;;;6.20;77.90;;;;;;941508;149;28231;-81
2023/01/28 12:44:46;;;;;;;2.50;2.20;;;6.20;77.80;;;;;;941100;149;27362;-81
2023/01/28 12:47:12;;;;;;;2.60;2.40;;;6.20;77.60;;;;;;942140;149;27918;-81
2023/01/28 12:49:48;;;;;;;2.40;2.20;;;6.20;77.50;;;;;;938861;149;27342;-81
2023/01/28 12:52:20;;;;;;;2.00;1.90;;;6.20;77.30;;;;;;940894;149;27338;-81
2023/01/28 12:54:52;;;;;;;2.57;2.37;;;6.20;77.30;;;;;;941295;149;27266;-81
2023/01/28 12:57:19;;;;;;;5.40;2.50;;;6.20;77.30;;;;;;941558;149;27365;-81
2023/01/28 12:59:45;;;;;;;3.43;2.57;;;6.20;77.10;;;;;;940816;149;27294;-81
2023/01/28 13:02:12;;;;;;;2.40;2.20;;;6.20;77.80;;;;;;941128;149;27398;-81
2023/01/28 13:04:47;;;;;;;2.60;2.40;;;6.20;77.20;;;;;;942181;149;27266;-81
2023/01/28 13:07:14;;;;;;;3.47;2.07;;;6.20;77.10;;;;;;940539;149;27451;-81
2023/01/28 13:09:41;;;;;;;2.60;2.00;;;6.20;77.00;;;;;;941530;149;27805;-81
2023/01/28 13:12:07;;;;;;;3.80;2.33;;;6.30;76.90;;;;;;942605;149;27262;-79
2023/01/28 13:14:33;;;;;;;2.40;2.20;;;6.20;76.70;;;;;;943045;149;27355;-81
2023/01/28 13:17:09;;;;;;;2.43;2.23;;;6.20;76.60;;;;;;944781;149;27454;-80
2023/01/28 13:19:36;;;;;;;2.57;2.13;;;6.20;76.60;;;;;;943017;149;27404;-79
2023/01/28 13:22:09;;;;;;;2.10;2.00;;;6.30;76.50;;;;;;942046;149;27319;-82
2023/01/28 13:24:36;;;;;;;3.07;2.23;;;6.30;76.30;;;;;;934340;149;27370;-81
2023/01/28 13:27:02;;;;;;;2.40;2.20;;;6.20;75.90;;;;;;941062;149;27399;-81
2023/01/28 13:29:32;;;;;;;2.30;2.10;;;6.20;75.70;;;;;;939808;149;27380;-81
2023/01/28 13:31:59;;;;;;;5.20;2.33;;;6.20;75.50;;;;;;940302;149;27365;-81
2023/01/28 13:34:36;;;;;;;2.60;2.40;;;6.20;75.50;;;;;;941315;149;27458;-81
2023/01/28 13:37:21;;;;;;;2.47;2.30;;;6.20;75.50;;;;;;941459;149;27872;-81